createdAt,value
2022-12-12T00:00:04.796Z,0.00
2022-12-12T00:01:04.929Z,0.00
2022-12-12T00:02:04.767Z,0.00
2022-12-12T00:03:04.911Z,0.00
2022-12-12T00:04:04.749Z,0.00
2022-12-12T00:05:04.730Z,0.00
2022-12-12T00:06:04.717Z,0.00
2022-12-12T00:07:04.709Z,0.00
2022-12-12T00:08:04.798Z,0.00
2022-12-12T00:09:04.690Z,0.00
2022-12-12T00:10:04.685Z,0.00
2022-12-12T00:11:04.667Z,0.00
2022-12-12T00:12:04.662Z,0.00
2022-12-12T00:13:04.668Z,0.00
2022-12-12T00:14:04.638Z,0.00
2022-12-12T00:15:04.620Z,0.00
2022-12-12T00:16:04.671Z,0.00
2022-12-12T00:17:04.599Z,0.00
2022-12-12T00:18:04.619Z,0.00
2022-12-12T00:19:04.588Z,0.00
2022-12-12T00:20:04.575Z,0.00
2022-12-12T00:21:04.560Z,0.00
2022-12-12T00:22:04.555Z,0.00
2022-12-12T00:23:04.568Z,0.00
2022-12-12T00:24:04.540Z,0.00
2022-12-12T00:25:04.517Z,0.00
2022-12-12T00:26:04.508Z,0.00
2022-12-12T00:27:04.518Z,0.00
2022-12-12T00:28:04.489Z,0.00
2022-12-12T00:29:04.499Z,0.00
2022-12-12T00:30:04.478Z,0.00
2022-12-12T00:31:04.514Z,0.00
2022-12-12T00:32:04.452Z,0.00
2022-12-12T00:33:04.430Z,0.00
2022-12-12T00:34:04.428Z,0.00
2022-12-12T00:35:04.448Z,0.00
2022-12-12T00:36:04.399Z,0.00
2022-12-12T00:37:04.392Z,0.00
2022-12-12T00:38:04.387Z,0.00
2022-12-12T00:39:04.391Z,0.00
2022-12-12T00:40:04.369Z,0.00
2022-12-12T00:41:04.349Z,0.00
2022-12-12T00:42:04.347Z,0.00
2022-12-12T00:43:04.327Z,0.00
2022-12-12T00:44:04.338Z,0.00
2022-12-12T00:45:04.308Z,0.00
2022-12-12T00:46:04.386Z,0.00
2022-12-12T00:47:04.288Z,0.00
2022-12-12T00:48:04.277Z,0.00
2022-12-12T00:49:04.301Z,0.00
2022-12-12T00:50:04.265Z,0.00
2022-12-12T00:51:04.246Z,0.00
2022-12-12T00:52:04.238Z,0.00
2022-12-12T00:53:04.220Z,0.00
2022-12-12T00:54:04.207Z,0.00
2022-12-12T00:55:04.230Z,0.00
2022-12-12T00:56:04.192Z,0.00
2022-12-12T00:57:04.187Z,0.00
2022-12-12T00:58:04.180Z,0.00
2022-12-12T00:59:04.159Z,0.00
2022-12-12T01:00:04.189Z,0.00
2022-12-12T01:01:04.137Z,0.00
2022-12-12T01:02:04.175Z,0.00
2022-12-12T01:03:04.148Z,0.00
2022-12-12T01:04:04.108Z,0.00
2022-12-12T01:05:04.095Z,0.00
2022-12-12T01:06:04.107Z,0.00
2022-12-12T01:07:04.068Z,0.00
2022-12-12T01:08:04.104Z,0.00
2022-12-12T01:09:04.052Z,0.00
2022-12-12T01:10:04.088Z,0.00
2022-12-12T01:11:04.029Z,0.00
2022-12-12T01:12:04.040Z,0.00
2022-12-12T01:13:04.007Z,0.00
2022-12-12T01:14:03.999Z,0.00
2022-12-12T01:15:03.996Z,0.00
2022-12-12T01:16:04.017Z,0.00
2022-12-12T01:17:03.966Z,0.00
2022-12-12T01:18:03.957Z,0.00
2022-12-12T01:19:03.947Z,0.00
2022-12-12T01:20:03.947Z,0.00
2022-12-12T01:21:03.967Z,0.00
2022-12-12T01:22:03.918Z,0.00
2022-12-12T01:23:03.916Z,0.00
2022-12-12T01:24:03.906Z,0.00
2022-12-12T01:25:03.878Z,0.00
2022-12-12T01:26:03.878Z,0.00
2022-12-12T01:27:03.895Z,0.00
2022-12-12T01:28:03.856Z,0.00
2022-12-12T01:29:03.838Z,0.00
2022-12-12T01:30:03.838Z,0.00
2022-12-12T01:31:03.921Z,0.00
2022-12-12T01:32:03.817Z,0.00
2022-12-12T01:33:03.831Z,0.00
2022-12-12T01:34:03.786Z,0.00
2022-12-12T01:35:03.777Z,0.00
2022-12-12T01:36:03.766Z,0.00
2022-12-12T01:37:03.777Z,0.00
2022-12-12T01:38:03.746Z,0.00
2022-12-12T01:39:03.735Z,0.00
2022-12-12T01:40:03.755Z,0.00
2022-12-12T01:41:03.720Z,0.00
2022-12-12T01:42:03.706Z,0.00
2022-12-12T01:43:03.688Z,0.00
2022-12-12T01:44:03.716Z,0.00
2022-12-12T01:45:03.686Z,0.00
2022-12-12T01:46:03.658Z,0.00
2022-12-12T01:47:03.657Z,0.00
2022-12-12T01:48:05.503Z,0.00
2022-12-12T01:49:03.632Z,0.00
2022-12-12T01:50:03.647Z,0.00
2022-12-12T01:51:03.607Z,0.00
2022-12-12T01:52:03.604Z,0.00
2022-12-12T01:53:03.586Z,0.00
2022-12-12T01:54:03.585Z,0.00
2022-12-12T01:55:03.586Z,0.00
2022-12-12T01:56:03.564Z,0.00
2022-12-12T01:57:03.549Z,0.00
2022-12-12T01:58:03.536Z,0.00
2022-12-12T01:59:03.526Z,0.00
2022-12-12T02:00:03.539Z,0.00
2022-12-12T02:01:03.580Z,0.00
2022-12-12T02:02:03.527Z,0.00
2022-12-12T02:03:03.487Z,0.00
2022-12-12T02:04:03.478Z,0.00
2022-12-12T02:05:03.458Z,0.00
2022-12-12T02:06:03.469Z,0.00
2022-12-12T02:07:03.435Z,0.00
2022-12-12T02:08:03.485Z,0.00
2022-12-12T02:09:03.416Z,0.00
2022-12-12T02:10:03.406Z,0.00
2022-12-12T02:11:03.418Z,0.00
2022-12-12T02:12:03.385Z,0.00
2022-12-12T02:13:03.377Z,0.00
2022-12-12T02:14:03.368Z,0.00
2022-12-12T02:15:03.364Z,0.00
2022-12-12T02:16:03.404Z,0.00
2022-12-12T02:17:03.336Z,0.00
2022-12-12T02:18:03.800Z,0.00
2022-12-12T02:19:03.316Z,0.00
2022-12-12T02:20:03.297Z,0.00
2022-12-12T02:21:03.289Z,0.00
2022-12-12T02:22:03.289Z,0.00
2022-12-12T02:23:03.265Z,0.00
2022-12-12T02:24:03.276Z,0.00
2022-12-12T02:25:03.246Z,0.00
2022-12-12T02:26:03.245Z,0.00
2022-12-12T02:27:03.224Z,0.00
2022-12-12T02:28:03.215Z,0.00
2022-12-12T02:29:03.233Z,0.00
2022-12-12T02:30:03.195Z,0.00
2022-12-12T02:31:03.229Z,0.00
2022-12-12T02:32:03.194Z,0.00
2022-12-12T02:33:03.165Z,0.00
2022-12-12T02:34:03.178Z,0.00
2022-12-12T02:35:03.136Z,0.00
2022-12-12T02:36:03.135Z,0.00
2022-12-12T02:37:03.145Z,0.00
2022-12-12T02:38:03.117Z,0.00
2022-12-12T02:39:03.111Z,0.00
2022-12-12T02:40:03.095Z,0.00
2022-12-12T02:41:03.076Z,0.00
2022-12-12T02:42:03.086Z,0.00
2022-12-12T02:43:03.064Z,0.00
2022-12-12T02:44:03.056Z,0.00
2022-12-12T02:45:03.065Z,0.00
2022-12-12T02:46:03.027Z,0.00
2022-12-12T02:47:03.084Z,0.00
2022-12-12T02:48:03.007Z,0.00
2022-12-12T02:49:02.986Z,0.00
2022-12-12T02:50:03.007Z,0.00
2022-12-12T02:51:02.972Z,0.00
2022-12-12T02:52:02.964Z,0.00
2022-12-12T02:53:02.956Z,0.00
2022-12-12T02:54:02.944Z,0.00
2022-12-12T02:55:02.938Z,0.00
2022-12-12T02:56:02.966Z,0.00
2022-12-12T02:57:02.925Z,0.00
2022-12-12T02:58:02.895Z,0.00
2022-12-12T02:59:02.896Z,0.00
2022-12-12T03:00:02.877Z,0.00
2022-12-12T03:01:02.889Z,0.00
2022-12-12T03:02:02.890Z,0.00
2022-12-12T03:03:02.851Z,0.00
2022-12-12T03:04:02.836Z,0.00
2022-12-12T03:05:02.856Z,0.00
2022-12-12T03:06:02.817Z,0.00
2022-12-12T03:07:02.812Z,0.00
2022-12-12T03:08:02.817Z,0.00
2022-12-12T03:09:02.806Z,0.00
2022-12-12T03:10:02.775Z,0.00
2022-12-12T03:11:02.789Z,0.00
2022-12-12T03:12:02.746Z,0.00
2022-12-12T03:13:02.747Z,0.00
2022-12-12T03:14:02.734Z,0.00
2022-12-12T03:15:02.726Z,0.00
2022-12-12T03:16:02.767Z,0.00
2022-12-12T03:17:02.704Z,0.00
2022-12-12T03:18:02.692Z,0.00
2022-12-12T03:19:02.684Z,0.00
2022-12-12T03:20:02.692Z,0.00
2022-12-12T03:21:02.655Z,0.00
2022-12-12T03:22:02.645Z,0.00
2022-12-12T03:23:02.634Z,0.00
2022-12-12T03:24:02.623Z,0.00
2022-12-12T03:25:02.635Z,0.00
2022-12-12T03:26:02.602Z,0.00
2022-12-12T03:27:02.604Z,0.00
2022-12-12T03:28:02.588Z,0.00
2022-12-12T03:29:02.581Z,0.00
2022-12-12T03:30:02.585Z,0.00
2022-12-12T03:31:02.555Z,0.00
2022-12-12T03:32:02.544Z,0.00
2022-12-12T03:33:02.526Z,0.00
2022-12-12T03:34:02.530Z,0.00
2022-12-12T03:35:02.545Z,0.00
2022-12-12T03:36:02.495Z,0.00
2022-12-12T03:37:02.493Z,0.00
2022-12-12T03:38:02.473Z,0.00
2022-12-12T03:39:02.485Z,0.00
2022-12-12T03:40:02.454Z,0.00
2022-12-12T03:41:02.474Z,0.00
2022-12-12T03:42:02.434Z,0.00
2022-12-12T03:43:02.446Z,0.00
2022-12-12T03:44:02.413Z,0.00
2022-12-12T03:45:02.404Z,0.00
2022-12-12T03:46:02.475Z,0.00
2022-12-12T03:47:02.384Z,0.00
2022-12-12T03:48:02.391Z,0.00
2022-12-12T03:49:02.366Z,0.00
2022-12-12T03:50:02.350Z,0.00
2022-12-12T03:51:02.370Z,0.00
2022-12-12T03:52:02.335Z,0.00
2022-12-12T03:53:02.329Z,0.00
2022-12-12T03:54:02.305Z,0.00
2022-12-12T03:55:02.294Z,0.00
2022-12-12T03:56:02.306Z,0.00
2022-12-12T03:57:02.283Z,0.00
2022-12-12T03:58:02.263Z,0.00
2022-12-12T03:59:02.261Z,0.00
2022-12-12T04:00:02.247Z,0.00
2022-12-12T04:01:02.303Z,0.00
2022-12-12T04:02:02.300Z,0.00
2022-12-12T04:03:02.223Z,0.00
2022-12-12T04:04:02.202Z,0.00
2022-12-12T04:05:02.211Z,0.00
2022-12-12T04:06:02.204Z,0.00
2022-12-12T04:07:02.175Z,0.00
2022-12-12T04:08:02.190Z,0.00
2022-12-12T04:09:02.164Z,0.00
2022-12-12T04:10:02.147Z,0.00
2022-12-12T04:11:02.161Z,0.00
2022-12-12T04:12:02.113Z,0.00
2022-12-12T04:13:02.103Z,0.00
2022-12-12T04:14:02.093Z,0.00
2022-12-12T04:15:02.096Z,0.00
2022-12-12T04:16:02.101Z,0.00
2022-12-12T04:17:02.062Z,0.00
2022-12-12T04:18:02.100Z,0.00
2022-12-12T04:19:02.042Z,0.00
2022-12-12T04:20:02.107Z,0.00
2022-12-12T04:21:02.025Z,0.00
2022-12-12T04:22:02.015Z,0.00
2022-12-12T04:23:02.004Z,0.00
2022-12-12T04:24:02.044Z,0.00
2022-12-12T04:25:01.985Z,0.00
2022-12-12T04:26:01.972Z,0.00
2022-12-12T04:27:01.951Z,0.00
2022-12-12T04:28:01.970Z,0.00
2022-12-12T04:29:01.952Z,0.00
2022-12-12T04:30:01.933Z,0.00
2022-12-12T04:31:01.922Z,0.00
2022-12-12T04:32:01.969Z,0.00
2022-12-12T04:33:01.903Z,0.00
2022-12-12T04:34:01.911Z,0.00
2022-12-12T04:35:01.883Z,0.00
2022-12-12T04:36:01.861Z,0.00
2022-12-12T04:37:01.852Z,0.00
2022-12-12T04:38:01.863Z,0.00
2022-12-12T04:39:01.829Z,0.00
2022-12-12T04:40:01.844Z,0.00
2022-12-12T04:41:01.811Z,0.00
2022-12-12T04:42:01.792Z,0.00
2022-12-12T04:43:01.832Z,0.00
2022-12-12T04:44:01.782Z,0.00
2022-12-12T04:45:01.763Z,0.00
2022-12-12T04:46:01.811Z,0.00
2022-12-12T04:47:01.770Z,0.00
2022-12-12T04:48:01.741Z,0.00
2022-12-12T04:49:01.725Z,0.00
2022-12-12T04:50:01.720Z,0.00
2022-12-12T04:51:01.712Z,0.00
2022-12-12T04:52:01.721Z,0.00
2022-12-12T04:53:01.683Z,0.00
2022-12-12T04:54:01.671Z,0.00
2022-12-12T04:55:01.659Z,0.00
2022-12-12T04:56:01.653Z,0.00
2022-12-12T04:57:01.663Z,0.00
2022-12-12T04:58:01.654Z,0.00
2022-12-12T04:59:01.612Z,0.00
2022-12-12T05:00:01.611Z,0.00
2022-12-12T05:01:01.620Z,0.00
2022-12-12T05:02:01.645Z,0.00
2022-12-12T05:03:01.627Z,0.00
2022-12-12T05:04:01.565Z,0.00
2022-12-12T05:05:01.553Z,0.00
2022-12-12T05:06:01.550Z,0.00
2022-12-12T05:07:01.530Z,0.00
2022-12-12T05:08:01.575Z,0.00
2022-12-12T05:09:01.531Z,0.00
2022-12-12T05:10:01.502Z,0.00
2022-12-12T05:11:01.491Z,0.00
2022-12-12T05:12:01.480Z,0.00
2022-12-12T05:13:01.491Z,0.00
2022-12-12T05:14:01.453Z,0.00
2022-12-12T05:15:01.442Z,0.00
2022-12-12T05:16:01.432Z,0.00
2022-12-12T05:17:01.532Z,0.00
2022-12-12T05:18:01.422Z,0.00
2022-12-12T05:19:01.439Z,0.00
2022-12-12T05:20:01.394Z,0.00
2022-12-12T05:21:01.391Z,0.00
2022-12-12T05:22:01.371Z,0.00
2022-12-12T05:23:01.373Z,0.00
2022-12-12T05:24:01.362Z,0.00
2022-12-12T05:25:01.389Z,0.00
2022-12-12T05:26:01.329Z,0.00
2022-12-12T05:27:01.319Z,0.00
2022-12-12T05:28:01.321Z,0.00
2022-12-12T05:29:06.991Z,0.00
2022-12-12T05:30:02.322Z,0.00
2022-12-12T05:31:01.376Z,0.00
2022-12-12T05:32:01.270Z,0.00
2022-12-12T05:33:01.280Z,0.00
2022-12-12T05:34:01.250Z,0.00
2022-12-12T05:35:01.234Z,0.00
2022-12-12T05:36:01.247Z,0.00
2022-12-12T05:37:01.231Z,0.00
2022-12-12T05:38:01.200Z,0.00
2022-12-12T05:39:01.189Z,0.00
2022-12-12T05:40:01.192Z,0.00
2022-12-12T05:41:01.169Z,0.00
2022-12-12T05:42:01.189Z,0.00
2022-12-12T05:43:01.173Z,0.00
2022-12-12T05:44:01.142Z,0.00
2022-12-12T05:45:01.131Z,0.00
2022-12-12T05:46:01.145Z,0.00
2022-12-12T05:47:01.171Z,0.00
2022-12-12T05:48:01.165Z,0.00
2022-12-12T05:49:01.097Z,0.00
2022-12-12T05:50:01.351Z,0.00
2022-12-12T05:51:01.208Z,0.00
2022-12-12T05:52:01.089Z,0.00
2022-12-12T05:53:01.120Z,0.00
2022-12-12T05:54:01.063Z,0.00
2022-12-12T05:55:01.057Z,0.00
2022-12-12T05:56:01.020Z,0.00
2022-12-12T05:57:00.998Z,0.00
2022-12-12T05:58:01.010Z,0.00
2022-12-12T05:59:00.971Z,0.00
2022-12-12T06:00:00.990Z,0.00
2022-12-12T06:01:03.408Z,0.00
2022-12-12T06:02:01.000Z,0.00
2022-12-12T06:03:00.941Z,0.00
2022-12-12T06:04:00.949Z,0.00
2022-12-12T06:05:00.928Z,0.00
2022-12-12T06:06:00.919Z,0.00
2022-12-12T06:07:00.909Z,0.00
2022-12-12T06:08:00.966Z,0.00
2022-12-12T06:09:00.868Z,0.00
2022-12-12T06:10:00.902Z,0.00
2022-12-12T06:11:00.869Z,0.00
2022-12-12T06:12:01.099Z,0.00
2022-12-12T06:13:00.846Z,0.00
2022-12-12T06:14:00.818Z,0.00
2022-12-12T06:15:00.832Z,0.00
2022-12-12T06:16:00.842Z,0.00
2022-12-12T06:17:00.807Z,0.00
2022-12-12T06:18:00.842Z,0.00
2022-12-12T06:19:00.768Z,0.00
2022-12-12T06:20:00.769Z,0.00
2022-12-12T06:21:00.739Z,0.00
2022-12-12T06:22:00.737Z,0.00
2022-12-12T06:23:00.719Z,0.00
2022-12-12T06:24:00.722Z,0.00
2022-12-12T06:25:00.720Z,0.00
2022-12-12T06:26:00.695Z,0.00
2022-12-12T06:27:00.677Z,0.00
2022-12-12T06:28:00.687Z,0.00
2022-12-12T06:29:00.659Z,0.00
2022-12-12T06:30:00.667Z,0.00
2022-12-12T06:31:00.653Z,0.00
2022-12-12T06:32:00.625Z,0.00
2022-12-12T06:33:00.610Z,0.00
2022-12-12T06:34:00.650Z,0.00
2022-12-12T06:35:00.598Z,0.00
2022-12-12T06:36:00.579Z,0.00
2022-12-12T06:37:00.571Z,0.00
2022-12-12T06:38:00.557Z,0.00
2022-12-12T06:39:00.551Z,0.00
2022-12-12T06:40:00.557Z,0.00
2022-12-12T06:41:00.527Z,0.00
2022-12-12T06:42:00.509Z,0.00
2022-12-12T06:43:00.498Z,0.00
2022-12-12T06:44:00.491Z,0.00
2022-12-12T06:45:00.510Z,0.00
2022-12-12T06:46:00.495Z,0.00
2022-12-12T06:47:00.459Z,0.00
2022-12-12T06:48:00.457Z,0.00
2022-12-12T06:49:00.435Z,0.00
2022-12-12T06:50:00.459Z,0.00
2022-12-12T06:51:00.486Z,0.00
2022-12-12T06:52:00.416Z,0.00
2022-12-12T06:53:00.397Z,0.00
2022-12-12T06:54:00.398Z,0.00
2022-12-12T06:55:00.407Z,0.00
2022-12-12T06:56:00.371Z,4.00
2022-12-12T06:57:00.377Z,4.00
2022-12-12T06:58:00.339Z,0.00
2022-12-12T06:59:00.341Z,4.00
2022-12-12T07:00:00.348Z,4.00
2022-12-12T07:01:00.308Z,0.00
2022-12-12T07:02:00.346Z,4.00
2022-12-12T07:03:00.339Z,8.00
2022-12-12T07:04:00.279Z,4.00
2022-12-12T07:05:00.300Z,4.00
2022-12-12T07:06:00.257Z,8.00
2022-12-12T07:07:00.275Z,8.00
2022-12-12T07:08:00.321Z,8.00
2022-12-12T07:09:00.227Z,12.00
2022-12-12T07:10:00.210Z,16.00
2022-12-12T07:11:00.208Z,16.00
2022-12-12T07:12:00.216Z,20.00
2022-12-12T07:13:00.187Z,20.00
2022-12-12T07:14:00.175Z,24.00
2022-12-12T07:15:00.168Z,24.00
2022-12-12T07:16:00.182Z,28.00
2022-12-12T07:17:00.158Z,28.00
2022-12-12T07:18:00.137Z,36.00
2022-12-12T07:19:00.125Z,40.00
2022-12-12T07:20:00.120Z,44.00
2022-12-12T07:21:00.100Z,48.00
2022-12-12T07:22:05.697Z,52.00
2022-12-12T07:23:01.076Z,56.00
2022-12-12T07:24:00.088Z,60.00
2022-12-12T07:25:00.066Z,64.00
2022-12-12T07:26:00.047Z,72.00
2022-12-12T07:27:00.082Z,76.00
2022-12-12T07:28:00.019Z,84.00
2022-12-12T07:29:00.070Z,96.00
2022-12-12T07:29:59.998Z,108.00
2022-12-12T07:31:00.018Z,116.00
2022-12-12T07:32:00.005Z,120.00
2022-12-12T07:32:59.968Z,124.00
2022-12-12T07:33:59.997Z,136.00
2022-12-12T07:34:59.945Z,140.00
2022-12-12T07:35:59.939Z,148.00
2022-12-12T07:37:03.084Z,160.00
2022-12-12T07:37:59.921Z,168.00
2022-12-12T07:38:59.959Z,176.00
2022-12-12T07:39:59.895Z,184.00
2022-12-12T07:40:59.888Z,196.00
2022-12-12T07:41:59.884Z,208.00
2022-12-12T07:42:59.867Z,212.00
2022-12-12T07:43:59.870Z,224.00
2022-12-12T07:44:59.878Z,232.00
2022-12-12T07:45:59.889Z,240.00
2022-12-12T07:46:59.894Z,248.00
2022-12-12T07:47:59.822Z,256.00
2022-12-12T07:48:59.809Z,268.00
2022-12-12T07:49:59.815Z,280.00
2022-12-12T07:50:59.788Z,296.00
2022-12-12T07:51:59.767Z,308.00
2022-12-12T07:52:59.767Z,324.00
2022-12-12T07:53:59.756Z,336.00
2022-12-12T07:54:59.765Z,352.00
2022-12-12T07:55:59.735Z,360.00
2022-12-12T07:56:59.726Z,364.00
2022-12-12T07:57:59.706Z,372.00
2022-12-12T07:58:59.707Z,384.00
2022-12-12T07:59:59.705Z,404.00
2022-12-12T08:00:59.703Z,420.00
2022-12-12T08:01:59.716Z,436.00
2022-12-12T08:02:59.663Z,448.00
2022-12-12T08:03:59.713Z,456.00
2022-12-12T08:05:06.791Z,472.00
2022-12-12T08:05:59.622Z,492.00
2022-12-12T08:07:03.963Z,516.00
2022-12-12T08:08:00.615Z,532.00
2022-12-12T08:08:59.593Z,556.00
2022-12-12T08:09:59.582Z,572.00
2022-12-12T08:10:59.582Z,588.00
2022-12-12T08:11:59.561Z,600.00
2022-12-12T08:12:59.592Z,600.00
2022-12-12T08:13:59.533Z,600.00
2022-12-12T08:14:59.523Z,604.00
2022-12-12T08:15:59.580Z,620.00
2022-12-12T08:16:59.509Z,648.00
2022-12-12T08:17:59.490Z,680.00
2022-12-12T08:18:59.493Z,700.00
2022-12-12T08:19:59.471Z,720.00
2022-12-12T08:20:59.462Z,736.00
2022-12-12T08:21:59.471Z,740.00
2022-12-12T08:22:59.463Z,740.00
2022-12-12T08:23:59.439Z,732.00
2022-12-12T08:24:59.443Z,732.00
2022-12-12T08:25:59.412Z,740.00
2022-12-12T08:26:59.424Z,748.00
2022-12-12T08:27:59.404Z,764.00
2022-12-12T08:28:59.382Z,772.00
2022-12-12T08:29:59.391Z,784.00
2022-12-12T08:30:59.409Z,792.00
2022-12-12T08:31:59.379Z,812.00
2022-12-12T08:33:02.371Z,820.00
2022-12-12T08:34:00.331Z,828.00
2022-12-12T08:34:59.312Z,832.00
2022-12-12T08:35:59.304Z,840.00
2022-12-12T08:36:59.292Z,848.00
2022-12-12T08:37:59.302Z,860.00
2022-12-12T08:38:59.299Z,868.00
2022-12-12T08:39:59.272Z,868.00
2022-12-12T08:40:59.252Z,880.00
2022-12-12T08:41:59.240Z,904.00
2022-12-12T08:42:59.253Z,932.00
2022-12-12T08:43:59.251Z,960.00
2022-12-12T08:44:59.211Z,980.00
2022-12-12T08:45:59.200Z,1004.00
2022-12-12T08:46:59.278Z,1032.00
2022-12-12T08:47:59.180Z,1072.00
2022-12-12T08:48:59.169Z,1096.00
2022-12-12T08:49:59.239Z,1108.00
2022-12-12T08:50:59.153Z,1124.00
2022-12-12T08:51:59.138Z,1160.00
2022-12-12T08:52:59.131Z,1204.00
2022-12-12T08:53:59.145Z,1232.00
2022-12-12T08:54:59.132Z,1252.00
2022-12-12T08:55:59.091Z,1272.00
2022-12-12T08:56:59.082Z,1312.00
2022-12-12T08:57:59.070Z,1360.00
2022-12-12T08:58:59.068Z,1404.00
2022-12-12T08:59:59.050Z,1424.00
2022-12-12T09:00:59.061Z,1428.00
2022-12-12T09:01:59.140Z,1444.00
2022-12-12T09:02:59.083Z,1456.00
2022-12-12T09:03:59.007Z,1456.00
2022-12-12T09:04:59.028Z,1468.00
2022-12-12T09:05:58.982Z,1480.00
2022-12-12T09:07:01.325Z,1492.00
2022-12-12T09:08:00.003Z,1504.00
2022-12-12T09:08:58.960Z,1508.00
2022-12-12T09:09:58.939Z,1512.00
2022-12-12T09:10:58.962Z,1528.00
2022-12-12T09:11:58.922Z,1532.00
2022-12-12T09:12:58.910Z,1492.00
2022-12-12T09:13:58.904Z,1416.00
2022-12-12T09:14:58.900Z,1340.00
2022-12-12T09:15:58.936Z,1376.00
2022-12-12T09:16:58.902Z,1488.00
2022-12-12T09:17:58.859Z,1580.00
2022-12-12T09:18:58.851Z,1608.00
2022-12-12T09:19:58.847Z,1632.00
2022-12-12T09:20:58.862Z,1664.00
2022-12-12T09:21:58.820Z,1696.00
2022-12-12T09:22:58.810Z,1716.00
2022-12-12T09:23:58.805Z,1732.00
2022-12-12T09:24:58.798Z,1740.00
2022-12-12T09:25:58.771Z,1728.00
2022-12-12T09:26:58.791Z,1724.00
2022-12-12T09:27:58.762Z,1788.00
2022-12-12T09:28:58.749Z,1856.00
2022-12-12T09:29:58.729Z,1884.00
2022-12-12T09:30:58.720Z,1912.00
2022-12-12T09:31:58.815Z,1924.00
2022-12-12T09:32:58.701Z,1936.00
2022-12-12T09:33:58.688Z,1936.00
2022-12-12T09:34:58.687Z,1880.00
2022-12-12T09:35:58.670Z,1824.00
2022-12-12T09:36:58.660Z,1808.00
2022-12-12T09:37:58.670Z,1768.00
2022-12-12T09:38:58.642Z,1716.00
2022-12-12T09:39:58.629Z,1668.00
2022-12-12T09:40:58.627Z,1668.00
2022-12-12T09:41:58.613Z,1692.00
2022-12-12T09:42:58.637Z,1704.00
2022-12-12T09:43:58.592Z,1712.00
2022-12-12T09:44:58.717Z,1708.00
2022-12-12T09:45:58.641Z,1700.00
2022-12-12T09:46:58.559Z,1684.00
2022-12-12T09:47:58.549Z,1688.00
2022-12-12T09:48:58.562Z,1700.00
2022-12-12T09:49:58.554Z,1716.00
2022-12-12T09:50:58.519Z,1752.00
2022-12-12T09:51:58.501Z,1788.00
2022-12-12T09:52:58.500Z,1856.00
2022-12-12T09:53:58.479Z,1948.00
2022-12-12T09:54:58.490Z,2012.00
2022-12-12T09:55:58.458Z,2024.00
2022-12-12T09:56:58.440Z,2020.00
2022-12-12T09:57:58.439Z,2028.00
2022-12-12T09:58:58.538Z,2052.00
2022-12-12T09:59:58.439Z,2116.00
2022-12-12T10:00:58.422Z,2176.00
2022-12-12T10:01:58.447Z,2196.00
2022-12-12T10:02:58.380Z,2204.00
2022-12-12T10:03:58.377Z,2240.00
2022-12-12T10:04:58.361Z,2320.00
2022-12-12T10:06:20.697Z,2444.00
2022-12-12T10:06:59.342Z,2544.00
2022-12-12T10:07:58.346Z,2660.00
2022-12-12T10:08:58.318Z,2756.00
2022-12-12T10:09:58.308Z,2796.00
2022-12-12T10:10:58.334Z,2796.00
2022-12-12T10:12:00.060Z,2756.00
2022-12-12T10:12:59.280Z,2724.00
2022-12-12T10:13:58.268Z,2680.00
2022-12-12T10:14:58.260Z,2636.00
2022-12-12T10:15:58.311Z,2620.00
2022-12-12T10:16:58.643Z,2612.00
2022-12-12T10:17:58.219Z,2608.00
2022-12-12T10:18:58.212Z,2556.00
2022-12-12T10:19:58.202Z,2480.00
2022-12-12T10:20:58.199Z,2416.00
2022-12-12T10:21:58.206Z,2352.00
2022-12-12T10:22:58.170Z,2300.00
2022-12-12T10:23:58.162Z,2256.00
2022-12-12T10:24:58.168Z,2204.00
2022-12-12T10:25:58.159Z,2160.00
2022-12-12T10:26:58.137Z,2116.00
2022-12-12T10:27:58.118Z,2072.00
2022-12-12T10:28:58.102Z,2024.00
2022-12-12T10:29:58.098Z,1984.00
2022-12-12T10:30:58.125Z,1948.00
2022-12-12T10:31:58.170Z,1948.00
2022-12-12T10:32:58.069Z,1964.00
2022-12-12T10:33:58.050Z,2012.00
2022-12-12T10:34:58.365Z,2092.00
2022-12-12T10:35:58.039Z,2192.00
2022-12-12T10:36:58.039Z,2336.00
2022-12-12T10:37:58.010Z,2492.00
2022-12-12T10:38:58.009Z,2596.00
2022-12-12T10:39:57.990Z,2724.00
2022-12-12T10:40:57.978Z,2840.00
2022-12-12T10:41:57.989Z,2884.00
2022-12-12T10:42:57.993Z,2904.00
2022-12-12T10:43:57.950Z,2940.00
2022-12-12T10:44:57.939Z,2936.00
2022-12-12T10:45:58.034Z,2904.00
2022-12-12T10:46:58.028Z,2876.00
2022-12-12T10:47:57.907Z,2868.00
2022-12-12T10:48:57.888Z,2856.00
2022-12-12T10:49:57.879Z,2832.00
2022-12-12T10:50:57.884Z,2796.00
2022-12-12T10:51:57.857Z,2768.00
2022-12-12T10:52:57.878Z,2704.00
2022-12-12T10:53:57.886Z,2636.00
2022-12-12T10:54:57.838Z,2568.00
2022-12-12T10:55:57.818Z,2468.00
2022-12-12T10:56:57.810Z,2336.00
2022-12-12T10:57:57.827Z,2192.00
2022-12-12T10:58:57.810Z,2116.00
2022-12-12T10:59:57.770Z,2116.00
2022-12-12T11:00:57.788Z,2060.00
2022-12-12T11:02:13.155Z,2056.00
2022-12-12T11:03:00.361Z,2076.00
2022-12-12T11:03:57.758Z,2004.00
2022-12-12T11:04:57.758Z,1924.00
2022-12-12T11:05:57.717Z,1876.00
2022-12-12T11:06:57.707Z,1880.00
2022-12-12T11:07:57.753Z,1876.00
2022-12-12T11:08:57.686Z,1888.00
2022-12-12T11:10:01.643Z,1916.00
2022-12-12T11:10:57.677Z,1956.00
2022-12-12T11:11:57.649Z,1964.00
2022-12-12T11:12:57.629Z,1964.00
2022-12-12T11:13:57.633Z,1964.00
2022-12-12T11:14:57.635Z,1956.00
2022-12-12T11:15:57.610Z,1980.00
2022-12-12T11:16:57.651Z,2020.00
2022-12-12T11:18:01.253Z,2040.00
2022-12-12T11:18:58.599Z,2064.00
2022-12-12T11:19:57.579Z,2112.00
2022-12-12T11:20:57.548Z,2152.00
2022-12-12T11:21:57.547Z,2188.00
2022-12-12T11:22:57.528Z,2212.00
2022-12-12T11:23:57.556Z,2228.00
2022-12-12T11:24:57.509Z,2224.00
2022-12-12T11:25:57.497Z,2220.00
2022-12-12T11:26:57.480Z,2224.00
2022-12-12T11:28:00.010Z,2244.00
2022-12-12T11:28:58.491Z,2264.00
2022-12-12T11:29:57.467Z,2264.00
2022-12-12T11:30:57.448Z,2236.00
2022-12-12T11:31:57.492Z,2264.00
2022-12-12T11:32:57.417Z,2336.00
2022-12-12T11:33:57.448Z,2484.00
2022-12-12T11:34:57.398Z,2624.00
2022-12-12T11:35:57.388Z,2788.00
2022-12-12T11:36:57.378Z,2928.00
2022-12-12T11:37:57.378Z,3028.00
2022-12-12T11:38:57.360Z,3096.00
2022-12-12T11:39:57.373Z,3160.00
2022-12-12T11:40:57.360Z,3220.00
2022-12-12T11:41:57.328Z,3268.00
2022-12-12T11:42:57.317Z,3312.00
2022-12-12T11:43:57.339Z,3336.00
2022-12-12T11:44:57.296Z,3352.00
2022-12-12T11:45:57.337Z,3292.00
2022-12-12T11:46:57.270Z,3236.00
2022-12-12T11:47:57.271Z,3216.00
2022-12-12T11:48:57.252Z,3232.00
2022-12-12T11:49:57.265Z,3208.00
2022-12-12T11:50:57.227Z,3236.00
2022-12-12T11:51:57.216Z,3196.00
2022-12-12T11:52:57.208Z,3256.00
2022-12-12T11:53:57.200Z,3380.00
2022-12-12T11:54:57.217Z,3464.00
2022-12-12T11:55:57.181Z,3560.00
2022-12-12T11:56:57.167Z,3620.00
2022-12-12T11:58:03.320Z,3680.00
2022-12-12T11:58:58.138Z,3668.00
2022-12-12T11:59:57.136Z,3636.00
2022-12-12T12:00:57.138Z,3644.00
2022-12-12T12:01:57.110Z,3680.00
2022-12-12T12:02:57.130Z,3696.00
2022-12-12T12:03:57.119Z,3680.00
2022-12-12T12:04:57.157Z,3600.00
2022-12-12T12:05:57.101Z,3512.00
2022-12-12T12:06:57.058Z,3476.00
2022-12-12T12:07:57.076Z,3484.00
2022-12-12T12:08:57.046Z,3512.00
2022-12-12T12:09:57.035Z,3528.00
2022-12-12T12:10:57.041Z,3512.00
2022-12-12T12:11:57.008Z,3496.00
2022-12-12T12:12:56.989Z,3500.00
2022-12-12T12:13:56.986Z,3472.00
2022-12-12T12:14:56.975Z,3364.00
2022-12-12T12:15:56.989Z,3156.00
2022-12-12T12:16:57.015Z,2820.00
2022-12-12T12:17:56.946Z,2928.00
2022-12-12T12:18:56.928Z,3088.00
2022-12-12T12:19:56.917Z,3128.00
2022-12-12T12:20:56.926Z,3100.00
2022-12-12T12:21:56.905Z,2772.00
2022-12-12T12:22:56.888Z,2468.00
2022-12-12T12:23:56.876Z,2608.00
2022-12-12T12:24:56.867Z,2836.00
2022-12-12T12:25:56.877Z,2944.00
2022-12-12T12:26:56.864Z,3460.00
2022-12-12T12:27:56.837Z,3628.00
2022-12-12T12:28:56.829Z,3548.00
2022-12-12T12:29:56.817Z,3412.00
2022-12-12T12:30:56.819Z,3352.00
2022-12-12T12:31:56.817Z,3348.00
2022-12-12T12:32:56.787Z,3232.00
2022-12-12T12:33:56.776Z,2936.00
2022-12-12T12:34:56.758Z,2916.00
2022-12-12T12:35:56.747Z,3028.00
2022-12-12T12:36:56.773Z,3168.00
2022-12-12T12:37:56.726Z,3212.00
2022-12-12T12:38:56.714Z,3116.00
2022-12-12T12:39:56.731Z,2904.00
2022-12-12T12:40:56.697Z,2860.00
2022-12-12T12:41:56.688Z,2832.00
2022-12-12T12:42:56.699Z,2824.00
2022-12-12T12:43:56.662Z,2788.00
2022-12-12T12:44:56.648Z,2712.00
2022-12-12T12:45:56.684Z,2696.00
2022-12-12T12:46:56.628Z,2696.00
2022-12-12T12:47:56.656Z,2720.00